createdAt,value
2023-05-16T00:01:35.580Z,8.80
2023-05-16T00:04:03.641Z,8.70
2023-05-16T00:06:31.997Z,8.70
2023-05-16T00:08:58.723Z,8.70
2023-05-16T00:11:25.666Z,8.70
2023-05-16T00:13:52.487Z,8.70
2023-05-16T00:16:21.690Z,8.70
2023-05-16T00:18:48.724Z,8.70
2023-05-16T00:21:15.496Z,8.70
2023-05-16T00:23:42.189Z,8.70
2023-05-16T00:26:08.963Z,8.70
2023-05-16T00:28:35.888Z,8.70
2023-05-16T00:31:02.806Z,8.70
2023-05-16T00:33:29.559Z,8.80
2023-05-16T00:35:56.271Z,8.80
2023-05-16T00:38:22.955Z,8.80
2023-05-16T00:40:49.644Z,8.70
2023-05-16T00:43:16.347Z,8.70
2023-05-16T00:45:43.073Z,8.60
2023-05-16T00:48:10.298Z,8.60
2023-05-16T00:50:36.975Z,8.60
2023-05-16T00:53:03.853Z,8.60
2023-05-16T00:55:30.586Z,8.70
2023-05-16T00:57:58.124Z,8.70
2023-05-16T01:00:25.478Z,8.80
2023-05-16T01:02:53.612Z,8.80
2023-05-16T01:05:20.815Z,8.90
2023-05-16T01:07:47.592Z,9.00
2023-05-16T01:10:14.668Z,9.00
2023-05-16T01:12:44.316Z,9.10
2023-05-16T01:15:15.686Z,9.10
2023-05-16T01:18:01.542Z,9.10
2023-05-16T01:20:48.240Z,9.10
2023-05-16T01:23:14.940Z,9.20
2023-05-16T01:25:56.705Z,9.20
2023-05-16T01:28:23.328Z,9.20
2023-05-16T01:30:51.105Z,9.20
2023-05-16T01:33:17.799Z,9.20
2023-05-16T01:35:47.412Z,9.10
2023-05-16T01:38:16.856Z,9.10
2023-05-16T01:40:52.622Z,9.10
2023-05-16T01:43:21.339Z,9.00
2023-05-16T01:45:50.777Z,9.00
2023-05-16T01:48:18.281Z,9.00
2023-05-16T01:50:47.987Z,9.00
2023-05-16T01:53:34.928Z,8.90
2023-05-16T01:56:01.653Z,8.90
2023-05-16T01:58:29.621Z,8.90
2023-05-16T02:01:07.345Z,9.00
2023-05-16T02:03:34.493Z,9.00
2023-05-16T02:06:01.394Z,8.90
2023-05-16T02:08:28.414Z,8.90
2023-05-16T02:10:55.097Z,8.90
2023-05-16T02:13:21.988Z,8.90
2023-05-16T02:15:48.616Z,8.90
2023-05-16T02:18:17.343Z,8.80
2023-05-16T02:20:44.307Z,8.70
2023-05-16T02:23:11.017Z,8.60
2023-05-16T02:25:37.831Z,8.60
2023-05-16T02:28:04.677Z,8.50
2023-05-16T02:30:31.277Z,8.50
2023-05-16T02:32:58.404Z,8.40
2023-05-16T02:35:25.201Z,8.40
2023-05-16T02:37:52.022Z,8.30
2023-05-16T02:40:19.143Z,8.30
2023-05-16T02:42:45.941Z,8.20
2023-05-16T02:45:12.638Z,8.20
2023-05-16T02:47:39.399Z,8.20
2023-05-16T02:50:06.310Z,8.10
2023-05-16T02:52:32.971Z,8.10
2023-05-16T02:55:16.136Z,8.00
2023-05-16T02:57:46.653Z,7.90
2023-05-16T03:00:15.665Z,7.80
2023-05-16T03:02:43.725Z,7.80
2023-05-16T03:05:11.277Z,7.80
2023-05-16T03:07:38.092Z,7.60
2023-05-16T03:10:04.958Z,7.50
2023-05-16T03:12:31.697Z,7.50
2023-05-16T03:14:58.535Z,7.40
2023-05-16T03:17:26.047Z,7.40
2023-05-16T03:19:53.123Z,7.40
2023-05-16T03:22:20.517Z,7.50
2023-05-16T03:24:47.860Z,7.50
2023-05-16T03:27:14.737Z,7.50
2023-05-16T03:29:41.464Z,7.40
2023-05-16T03:32:08.215Z,7.40
2023-05-16T03:34:35.029Z,7.40
2023-05-16T03:37:01.725Z,7.40
2023-05-16T03:39:28.503Z,7.30
2023-05-16T03:41:57.635Z,7.20
2023-05-16T03:44:24.666Z,7.20
2023-05-16T03:46:52.918Z,7.20
2023-05-16T03:49:21.266Z,7.10
2023-05-16T03:51:48.000Z,7.10
2023-05-16T03:54:15.231Z,7.10
2023-05-16T03:56:42.154Z,7.00
2023-05-16T03:59:08.874Z,7.10
2023-05-16T04:01:35.635Z,7.00
2023-05-16T04:04:02.361Z,7.00
2023-05-16T04:06:29.466Z,7.00
2023-05-16T04:08:56.171Z,7.00
2023-05-16T04:11:22.838Z,7.00
2023-05-16T04:13:49.679Z,7.00
2023-05-16T04:16:16.354Z,6.90
2023-05-16T04:18:43.264Z,6.80
2023-05-16T04:21:11.723Z,6.80
2023-05-16T04:23:38.493Z,6.80
2023-05-16T04:26:05.282Z,6.80
2023-05-16T04:28:32.558Z,6.80
2023-05-16T04:30:59.296Z,6.80
2023-05-16T04:33:26.143Z,6.80
2023-05-16T04:35:54.673Z,6.80
2023-05-16T04:38:21.790Z,6.80
2023-05-16T04:40:50.864Z,6.80
2023-05-16T04:43:18.096Z,6.80
2023-05-16T04:45:45.511Z,6.80
2023-05-16T04:48:12.335Z,6.90
2023-05-16T04:50:39.129Z,6.90
2023-05-16T04:53:05.949Z,6.90
2023-05-16T04:55:33.189Z,6.90
2023-05-16T04:57:59.822Z,7.00
2023-05-16T05:00:27.387Z,7.00
2023-05-16T05:02:54.333Z,7.00
2023-05-16T05:05:21.523Z,7.10
2023-05-16T05:07:48.781Z,7.20
2023-05-16T05:10:16.071Z,7.30
2023-05-16T05:12:42.825Z,7.40
2023-05-16T05:15:09.575Z,7.40
2023-05-16T05:17:37.856Z,7.50
2023-05-16T05:20:08.709Z,7.50
2023-05-16T05:22:35.466Z,7.60
2023-05-16T05:25:02.232Z,7.60
2023-05-16T05:27:29.679Z,7.70
2023-05-16T05:29:56.462Z,7.80
2023-05-16T05:32:23.241Z,7.90
2023-05-16T05:34:49.954Z,8.00
2023-05-16T05:37:17.217Z,8.10
2023-05-16T05:39:43.935Z,8.10
2023-05-16T05:42:11.978Z,8.20
2023-05-16T05:44:38.670Z,8.30
2023-05-16T05:47:08.466Z,8.30
2023-05-16T05:49:36.048Z,8.40
2023-05-16T05:52:02.763Z,8.50
2023-05-16T05:54:30.304Z,8.60
2023-05-16T05:56:57.416Z,8.70
2023-05-16T05:59:24.726Z,8.70
2023-05-16T06:01:54.886Z,8.80
2023-05-16T06:04:22.026Z,8.80
2023-05-16T06:06:48.790Z,8.90
2023-05-16T06:09:16.151Z,9.00
2023-05-16T06:11:44.720Z,9.10
2023-05-16T06:14:11.734Z,9.10
2023-05-16T06:16:40.316Z,9.20
2023-05-16T06:19:07.186Z,9.30
2023-05-16T06:21:33.982Z,9.40
2023-05-16T06:24:00.949Z,9.40
2023-05-16T06:26:27.686Z,9.50
2023-05-16T06:28:54.475Z,9.50
2023-05-16T06:31:21.666Z,9.60
2023-05-16T06:33:48.357Z,9.60
2023-05-16T06:36:15.048Z,9.70
2023-05-16T06:38:41.864Z,9.70
2023-05-16T06:41:08.725Z,9.80
2023-05-16T06:43:35.753Z,9.90
2023-05-16T06:46:02.807Z,10.00
2023-05-16T06:48:30.214Z,10.10
2023-05-16T06:50:57.718Z,10.20
2023-05-16T06:53:24.497Z,10.30
2023-05-16T06:55:51.371Z,10.30
2023-05-16T06:58:18.293Z,10.40
2023-05-16T07:00:45.227Z,10.40
2023-05-16T07:03:12.081Z,10.50
2023-05-16T07:05:38.898Z,10.60
2023-05-16T07:08:07.600Z,10.70
2023-05-16T07:10:34.710Z,10.80
2023-05-16T07:13:01.825Z,10.90
2023-05-16T07:15:28.863Z,11.00
2023-05-16T07:17:55.902Z,11.10
2023-05-16T07:20:22.629Z,11.10
2023-05-16T07:22:49.366Z,11.10
2023-05-16T07:25:16.342Z,11.20
2023-05-16T07:27:45.142Z,11.20
2023-05-16T07:30:12.749Z,11.30
2023-05-16T07:32:39.830Z,11.40
2023-05-16T07:35:06.710Z,11.50
2023-05-16T07:37:33.667Z,11.60
2023-05-16T07:40:00.613Z,11.60
2023-05-16T07:42:27.564Z,11.60
2023-05-16T07:44:54.292Z,11.60
2023-05-16T07:47:21.018Z,11.60
2023-05-16T07:49:47.777Z,11.70
2023-05-16T07:52:14.458Z,11.70
2023-05-16T07:54:41.418Z,11.80
2023-05-16T07:57:08.289Z,11.80
2023-05-16T07:59:35.277Z,11.90
2023-05-16T08:02:02.181Z,12.00
2023-05-16T08:04:28.964Z,12.10
2023-05-16T08:06:55.851Z,12.20
2023-05-16T08:09:22.630Z,12.20
2023-05-16T08:11:49.412Z,12.20
2023-05-16T08:14:16.287Z,12.40
2023-05-16T08:16:43.111Z,12.40
2023-05-16T08:19:10.069Z,12.60
2023-05-16T08:21:37.010Z,12.60
2023-05-16T08:24:05.521Z,12.60
2023-05-16T08:26:32.723Z,12.70
2023-05-16T08:28:59.445Z,12.70
2023-05-16T08:31:26.256Z,12.80
2023-05-16T08:33:53.082Z,12.90
2023-05-16T08:36:20.341Z,12.90
2023-05-16T08:38:47.990Z,13.00
2023-05-16T08:41:14.861Z,13.00
2023-05-16T08:43:41.615Z,13.10
2023-05-16T08:46:08.435Z,13.30
2023-05-16T08:48:35.375Z,13.40
2023-05-16T08:51:02.818Z,13.40
2023-05-16T08:53:35.559Z,13.40
2023-05-16T08:56:02.380Z,13.40
2023-05-16T08:58:30.119Z,13.40
2023-05-16T09:00:57.049Z,13.50
2023-05-16T09:03:25.237Z,13.70
2023-05-16T09:05:52.668Z,13.70
2023-05-16T09:08:20.612Z,13.90
2023-05-16T09:10:47.466Z,14.00
2023-05-16T09:13:15.122Z,13.90
2023-05-16T09:15:41.912Z,13.90
2023-05-16T09:18:11.797Z,14.00
2023-05-16T09:20:41.344Z,14.10
2023-05-16T09:23:08.285Z,14.20
2023-05-16T09:25:35.490Z,14.30
2023-05-16T09:28:03.431Z,14.40
2023-05-16T09:30:31.930Z,14.50
2023-05-16T09:32:59.647Z,14.50
2023-05-16T09:35:42.929Z,14.60
2023-05-16T09:38:15.896Z,14.70
2023-05-16T09:40:42.725Z,14.70
2023-05-16T09:43:09.536Z,14.80
2023-05-16T09:45:36.477Z,14.90
2023-05-16T09:48:07.019Z,15.10
2023-05-16T09:50:34.613Z,15.20
2023-05-16T09:53:01.706Z,15.40
2023-05-16T09:55:28.588Z,15.50
2023-05-16T09:57:55.888Z,15.60
2023-05-16T10:00:22.607Z,15.70
2023-05-16T10:02:49.298Z,15.80
2023-05-16T10:05:17.783Z,16.00
2023-05-16T10:07:44.838Z,16.10
2023-05-16T10:10:11.557Z,16.00
2023-05-16T10:12:38.167Z,15.80
2023-05-16T10:15:05.331Z,15.70
2023-05-16T10:17:32.889Z,15.70
2023-05-16T10:20:05.659Z,15.80
2023-05-16T10:22:36.218Z,16.10
2023-05-16T10:25:03.216Z,16.40
2023-05-16T10:27:29.988Z,16.80
2023-05-16T10:29:58.530Z,17.10
2023-05-16T10:32:25.676Z,16.90
2023-05-16T10:34:53.091Z,16.70
2023-05-16T10:37:19.770Z,16.40
2023-05-16T10:39:46.437Z,16.30
2023-05-16T10:42:18.297Z,16.60
2023-05-16T10:44:54.649Z,16.90
2023-05-16T10:47:25.049Z,17.40
2023-05-16T10:49:52.089Z,17.90
2023-05-16T10:52:18.737Z,18.20
2023-05-16T10:54:51.025Z,18.30
2023-05-16T10:57:23.837Z,18.00
2023-05-16T10:59:51.538Z,17.80
2023-05-16T11:02:24.853Z,17.70
2023-05-16T11:04:54.155Z,17.70
2023-05-16T11:07:21.451Z,17.50
2023-05-16T11:10:07.134Z,17.80
2023-05-16T11:12:37.892Z,18.20
2023-05-16T11:15:17.574Z,18.20
2023-05-16T11:17:46.167Z,17.80
2023-05-16T11:20:26.619Z,17.50
2023-05-16T11:23:13.265Z,17.70
2023-05-16T11:25:41.495Z,17.70
2023-05-16T11:28:08.408Z,18.00
2023-05-16T11:30:35.084Z,18.30
2023-05-16T11:33:02.059Z,18.60
2023-05-16T11:35:29.596Z,19.00
2023-05-16T11:37:57.638Z,19.20
2023-05-16T11:40:24.403Z,18.70
2023-05-16T11:42:51.559Z,19.10
2023-05-16T11:45:19.214Z,19.10
2023-05-16T11:47:48.138Z,19.20
2023-05-16T11:50:18.835Z,19.40
2023-05-16T11:52:46.546Z,19.70
2023-05-16T11:55:15.660Z,19.90
2023-05-16T11:57:44.387Z,20.00
2023-05-16T12:00:14.368Z,20.30
2023-05-16T12:02:41.200Z,20.80
2023-05-16T12:05:09.008Z,20.50
2023-05-16T12:07:36.992Z,20.80
2023-05-16T12:10:07.894Z,20.60
2023-05-16T12:12:35.894Z,20.40
2023-05-16T12:15:09.094Z,20.70
2023-05-16T12:17:36.207Z,20.90
2023-05-16T12:20:06.012Z,21.10
2023-05-16T12:22:33.222Z,21.40
2023-05-16T12:25:00.335Z,21.70
2023-05-16T12:27:30.088Z,22.20
2023-05-16T12:29:58.171Z,22.10
2023-05-16T12:32:25.413Z,22.00
2023-05-16T12:34:52.931Z,22.00
2023-05-16T12:37:21.091Z,22.10
2023-05-16T12:39:48.245Z,22.30
2023-05-16T12:42:15.056Z,22.50
2023-05-16T12:44:44.867Z,22.10
2023-05-16T12:47:12.046Z,22.30
2023-05-16T12:49:45.981Z,22.60
2023-05-16T12:52:17.836Z,22.20
2023-05-16T12:54:44.989Z,22.40
2023-05-16T12:57:11.928Z,22.70
2023-05-16T12:59:38.644Z,22.50
2023-05-16T13:02:05.771Z,22.50
2023-05-16T13:04:32.493Z,23.00
2023-05-16T13:07:00.050Z,23.40
2023-05-16T13:09:29.874Z,23.20
2023-05-16T13:12:00.719Z,22.90
2023-05-16T13:14:28.255Z,23.10
2023-05-16T13:16:55.371Z,23.40
2023-05-16T13:19:24.374Z,23.60
2023-05-16T13:21:51.441Z,23.90
2023-05-16T13:24:18.444Z,24.20
2023-05-16T13:26:45.297Z,24.20
2023-05-16T13:29:12.405Z,24.00
2023-05-16T13:31:39.138Z,24.30
2023-05-16T13:34:06.910Z,24.50
2023-05-16T13:36:49.339Z,24.80
2023-05-16T13:39:20.512Z,25.00
2023-05-16T13:41:49.187Z,25.10
2023-05-16T13:44:16.305Z,25.00
2023-05-16T13:46:43.280Z,24.20
2023-05-16T13:49:10.337Z,24.40
2023-05-16T13:51:37.113Z,24.50
2023-05-16T13:54:03.852Z,24.80
2023-05-16T13:56:30.581Z,24.80
2023-05-16T13:59:03.674Z,24.30
2023-05-16T14:01:33.117Z,24.90
2023-05-16T14:03:59.972Z,25.30
2023-05-16T14:06:26.737Z,25.70
2023-05-16T14:08:53.441Z,26.00
2023-05-16T14:11:23.144Z,25.90
2023-05-16T14:13:49.922Z,25.40
2023-05-16T14:16:16.782Z,25.00
2023-05-16T14:18:43.458Z,25.20
2023-05-16T14:21:10.440Z,25.90
2023-05-16T14:23:37.240Z,25.80
2023-05-16T14:26:06.936Z,25.50
2023-05-16T14:28:34.449Z,25.90
2023-05-16T14:31:01.421Z,25.60
2023-05-16T14:33:28.153Z,26.30
2023-05-16T14:35:55.176Z,26.60
2023-05-16T14:38:22.036Z,26.80
2023-05-16T14:40:48.773Z,25.60
2023-05-16T14:43:16.661Z,24.80
2023-05-16T14:45:43.396Z,25.30
2023-05-16T14:48:10.136Z,25.30
2023-05-16T14:50:36.890Z,24.60
2023-05-16T14:53:03.652Z,24.60
2023-05-16T14:55:30.612Z,24.70
2023-05-16T14:58:00.026Z,24.00
2023-05-16T15:00:27.312Z,24.60
2023-05-16T15:02:54.546Z,24.10
2023-05-16T15:05:21.482Z,23.60
2023-05-16T15:07:48.681Z,22.80
2023-05-16T15:10:15.490Z,22.10
2023-05-16T15:12:43.484Z,21.70
2023-05-16T15:15:13.545Z,21.40
2023-05-16T15:17:41.964Z,21.00
2023-05-16T15:20:09.662Z,20.60
2023-05-16T15:22:36.719Z,20.10
2023-05-16T15:25:05.727Z,20.00
2023-05-16T15:27:32.450Z,19.80
2023-05-16T15:29:59.169Z,19.60
2023-05-16T15:32:26.157Z,19.40
2023-05-16T15:34:53.149Z,19.50
2023-05-16T15:37:20.398Z,19.40
2023-05-16T15:39:47.875Z,19.40
2023-05-16T15:42:14.911Z,19.40
2023-05-16T15:44:41.896Z,19.20
2023-05-16T15:47:09.229Z,19.00
2023-05-16T15:49:35.969Z,18.80
2023-05-16T15:52:02.605Z,18.70
2023-05-16T15:54:29.712Z,18.70
2023-05-16T15:56:56.701Z,18.70
2023-05-16T15:59:23.393Z,18.60
2023-05-16T16:01:50.128Z,18.50
2023-05-16T16:04:17.543Z,18.50
2023-05-16T16:06:44.997Z,18.30
2023-05-16T16:09:11.740Z,18.20
2023-05-16T16:11:38.504Z,18.10
2023-05-16T16:14:05.649Z,18.00
2023-05-16T16:16:32.396Z,18.00
2023-05-16T16:18:59.119Z,18.10
2023-05-16T16:21:26.034Z,18.00
2023-05-16T16:23:53.023Z,18.00
2023-05-16T16:26:19.693Z,18.00
2023-05-16T16:28:46.497Z,17.90
2023-05-16T16:31:13.294Z,17.90
2023-05-16T16:33:41.424Z,17.90
2023-05-16T16:36:09.132Z,18.00
2023-05-16T16:38:35.829Z,18.10
2023-05-16T16:41:02.488Z,18.10
2023-05-16T16:43:29.253Z,18.30
2023-05-16T16:45:55.906Z,18.20
2023-05-16T16:48:22.821Z,18.20
2023-05-16T16:50:49.499Z,18.20
2023-05-16T16:53:16.392Z,18.20
2023-05-16T16:55:43.177Z,18.20
2023-05-16T16:58:09.928Z,18.10
2023-05-16T17:00:36.786Z,18.00
2023-05-16T17:03:04.981Z,17.90
2023-05-16T17:05:31.715Z,17.80
2023-05-16T17:07:58.436Z,17.80
2023-05-16T17:10:25.478Z,17.80
2023-05-16T17:12:52.494Z,17.80
2023-05-16T17:15:19.185Z,17.80
2023-05-16T17:17:46.185Z,18.30
2023-05-16T17:20:16.139Z,19.30
2023-05-16T17:22:43.365Z,19.30
2023-05-16T17:25:10.494Z,19.10
2023-05-16T17:27:37.203Z,18.80
2023-05-16T17:30:05.142Z,18.50
2023-05-16T17:32:31.931Z,19.20
2023-05-16T17:35:01.201Z,19.30
2023-05-16T17:37:28.728Z,20.20
2023-05-16T17:39:55.496Z,20.20
2023-05-16T17:42:22.208Z,19.60
2023-05-16T17:44:49.468Z,19.30
2023-05-16T17:47:16.825Z,18.90
2023-05-16T17:49:43.516Z,18.50
2023-05-16T17:52:10.176Z,18.10
2023-05-16T17:54:37.019Z,17.80
2023-05-16T17:57:04.283Z,17.80
2023-05-16T17:59:30.983Z,17.70
2023-05-16T18:01:57.980Z,17.90
2023-05-16T18:04:25.215Z,17.80
2023-05-16T18:06:56.224Z,17.70
2023-05-16T18:09:23.009Z,17.60
2023-05-16T18:11:50.548Z,17.70
2023-05-16T18:14:17.456Z,17.40
2023-05-16T18:16:44.314Z,17.40
2023-05-16T18:19:11.640Z,17.40
2023-05-16T18:21:38.850Z,17.40
2023-05-16T18:24:08.327Z,17.30
2023-05-16T18:26:35.196Z,17.30
2023-05-16T18:29:02.948Z,17.40
2023-05-16T18:31:30.761Z,17.40
2023-05-16T18:33:57.605Z,17.20
2023-05-16T18:36:24.311Z,17.10
2023-05-16T18:38:51.194Z,16.90
2023-05-16T18:41:17.935Z,16.80
2023-05-16T18:43:44.658Z,16.80
2023-05-16T18:46:11.325Z,16.80
2023-05-16T18:48:38.097Z,16.80
2023-05-16T18:51:05.046Z,16.50
2023-05-16T18:53:31.896Z,16.40
2023-05-16T18:55:59.108Z,16.40
2023-05-16T18:58:25.871Z,16.30
2023-05-16T19:00:53.096Z,16.30
2023-05-16T19:03:22.153Z,16.20
2023-05-16T19:05:49.624Z,16.20
2023-05-16T19:08:16.743Z,16.10
2023-05-16T19:10:43.424Z,16.20
2023-05-16T19:13:10.263Z,16.10
2023-05-16T19:15:37.222Z,16.00
2023-05-16T19:18:05.024Z,16.00
2023-05-16T19:20:32.951Z,16.00
2023-05-16T19:22:59.959Z,15.90
2023-05-16T19:25:27.303Z,15.80
2023-05-16T19:27:54.567Z,15.80
2023-05-16T19:30:21.351Z,15.70
2023-05-16T19:32:48.580Z,15.70
2023-05-16T19:35:15.507Z,15.70
2023-05-16T19:37:42.145Z,15.70
2023-05-16T19:40:09.316Z,15.70
2023-05-16T19:42:36.091Z,15.60
2023-05-16T19:45:02.928Z,15.60
2023-05-16T19:47:29.803Z,15.50
2023-05-16T19:49:57.019Z,15.40
2023-05-16T19:52:25.501Z,15.30
2023-05-16T19:54:52.235Z,15.30
2023-05-16T19:57:19.237Z,15.20
2023-05-16T19:59:46.513Z,15.10
2023-05-16T20:02:13.411Z,15.00
2023-05-16T20:04:40.235Z,14.90
2023-05-16T20:07:07.461Z,14.80
2023-05-16T20:09:34.174Z,14.70
2023-05-16T20:12:01.036Z,14.60
2023-05-16T20:14:29.400Z,14.50
2023-05-16T20:16:56.572Z,14.40
2023-05-16T20:19:24.294Z,14.30
2023-05-16T20:21:51.229Z,14.30
2023-05-16T20:24:18.346Z,14.20
2023-05-16T20:26:45.085Z,14.10
2023-05-16T20:29:12.039Z,14.10
2023-05-16T20:31:39.037Z,14.10
2023-05-16T20:34:05.933Z,14.00
2023-05-16T20:36:32.844Z,14.00
2023-05-16T20:39:00.025Z,13.90
2023-05-16T20:41:26.810Z,13.80
2023-05-16T20:43:53.707Z,13.80
2023-05-16T20:46:20.673Z,13.80
2023-05-16T20:48:47.555Z,13.70
2023-05-16T20:51:14.293Z,13.60
2023-05-16T20:53:41.015Z,13.60
2023-05-16T20:56:07.711Z,13.50
2023-05-16T20:58:34.758Z,13.30
2023-05-16T21:01:02.186Z,13.20
2023-05-16T21:03:28.926Z,13.20
2023-05-16T21:05:55.623Z,13.00
2023-05-16T21:08:22.436Z,13.00
2023-05-16T21:10:49.388Z,12.90
2023-05-16T21:13:16.195Z,12.80
2023-05-16T21:15:43.024Z,12.70
2023-05-16T21:18:09.872Z,12.60
2023-05-16T21:20:36.591Z,12.60
2023-05-16T21:23:03.628Z,12.50
2023-05-16T21:25:30.512Z,12.50
2023-05-16T21:27:57.330Z,12.50
2023-05-16T21:30:24.035Z,12.40
2023-05-16T21:32:50.740Z,12.30
2023-05-16T21:35:17.554Z,12.30
2023-05-16T21:37:44.621Z,12.30
2023-05-16T21:40:14.719Z,12.30
2023-05-16T21:42:41.925Z,12.20
2023-05-16T21:45:12.502Z,12.10
2023-05-16T21:47:39.378Z,12.00
2023-05-16T21:50:06.652Z,12.00
2023-05-16T21:52:33.329Z,11.90
2023-05-16T21:55:00.043Z,11.90
2023-05-16T21:57:27.341Z,11.80
2023-05-16T21:59:54.119Z,11.70
2023-05-16T22:02:23.252Z,11.60
2023-05-16T22:04:50.376Z,11.60
2023-05-16T22:07:17.138Z,11.50
2023-05-16T22:09:43.859Z,11.60
2023-05-16T22:12:10.703Z,11.50
2023-05-16T22:14:37.864Z,11.50
2023-05-16T22:17:05.608Z,11.40
2023-05-16T22:19:35.725Z,11.40
2023-05-16T22:22:02.531Z,11.40
2023-05-16T22:24:29.285Z,11.40
2023-05-16T22:26:56.170Z,11.30
2023-05-16T22:29:22.814Z,11.20
2023-05-16T22:31:49.530Z,11.20
2023-05-16T22:34:16.266Z,11.10
2023-05-16T22:36:42.935Z,11.10
2023-05-16T22:39:09.743Z,11.00
2023-05-16T22:41:36.590Z,11.00
2023-05-16T22:44:03.285Z,10.90
2023-05-16T22:46:29.990Z,10.90
2023-05-16T22:48:56.856Z,10.90
2023-05-16T22:51:23.573Z,10.90
2023-05-16T22:53:50.189Z,10.80
2023-05-16T22:56:17.048Z,10.80
2023-05-16T22:58:43.700Z,10.80
2023-05-16T23:01:10.296Z,10.70
2023-05-16T23:03:37.135Z,10.70
2023-05-16T23:06:04.185Z,10.60
2023-05-16T23:08:31.062Z,10.60
2023-05-16T23:10:57.807Z,10.60
2023-05-16T23:13:24.472Z,10.50
2023-05-16T23:15:51.179Z,10.50
2023-05-16T23:18:17.929Z,10.50
2023-05-16T23:20:44.815Z,10.40
2023-05-16T23:23:11.440Z,10.30
2023-05-16T23:25:38.120Z,10.30
2023-05-16T23:28:04.771Z,10.20
2023-05-16T23:30:31.420Z,10.20
2023-05-16T23:32:58.650Z,10.10
2023-05-16T23:35:25.523Z,10.10
2023-05-16T23:37:52.365Z,10.10
2023-05-16T23:40:19.024Z,10.00
2023-05-16T23:42:45.647Z,10.00
2023-05-16T23:45:12.302Z,10.00
2023-05-16T23:47:39.377Z,10.00
2023-05-16T23:50:06.486Z,9.90
2023-05-16T23:52:33.565Z,9.90
2023-05-16T23:55:00.386Z,9.90
2023-05-16T23:57:27.255Z,9.80
2023-05-16T23:59:54.150Z,9.80
